sensor_id;sensor_type;location;lat;lon;timestamp;P1;durP1;ratioP1;P2;durP2;ratioP2
21657;SDS011;10990;48.174;9.782;2023-04-08T00:00:26;3.67;;;3.17;;
21657;SDS011;10990;48.174;9.782;2023-04-08T00:02:53;4.67;;;3.10;;
21657;SDS011;10990;48.174;9.782;2023-04-08T00:05:20;4.00;;;3.00;;
21657;SDS011;10990;48.174;9.782;2023-04-08T00:07:47;4.40;;;3.17;;
21657;SDS011;10990;48.174;9.782;2023-04-08T00:10:13;3.73;;;3.00;;
21657;SDS011;10990;48.174;9.782;2023-04-08T00:12:40;3.83;;;2.80;;
21657;SDS011;10990;48.174;9.782;2023-04-08T00:15:07;4.87;;;3.00;;
21657;SDS011;10990;48.174;9.782;2023-04-08T00:17:36;4.60;;;3.53;;
21657;SDS011;10990;48.174;9.782;2023-04-08T00:20:03;4.40;;;3.53;;
21657;SDS011;10990;48.174;9.782;2023-04-08T00:22:31;4.57;;;3.57;;
21657;SDS011;10990;48.174;9.782;2023-04-08T00:24:58;5.17;;;3.40;;
21657;SDS011;10990;48.174;9.782;2023-04-08T00:27:26;4.07;;;3.33;;
21657;SDS011;10990;48.174;9.782;2023-04-08T00:29:52;5.03;;;3.37;;
21657;SDS011;10990;48.174;9.782;2023-04-08T00:32:19;3.63;;;3.20;;
21657;SDS011;10990;48.174;9.782;2023-04-08T00:34:48;5.37;;;3.70;;
21657;SDS011;10990;48.174;9.782;2023-04-08T00:37:15;5.10;;;3.47;;
21657;SDS011;10990;48.174;9.782;2023-04-08T00:39:41;5.93;;;3.47;;
21657;SDS011;10990;48.174;9.782;2023-04-08T00:42:08;4.50;;;3.53;;
21657;SDS011;10990;48.174;9.782;2023-04-08T00:44:35;5.50;;;3.83;;
21657;SDS011;10990;48.174;9.782;2023-04-08T00:47:02;4.00;;;3.60;;
21657;SDS011;10990;48.174;9.782;2023-04-08T00:49:30;4.37;;;3.60;;
21657;SDS011;10990;48.174;9.782;2023-04-08T00:51:59;4.60;;;3.60;;
21657;SDS011;10990;48.174;9.782;2023-04-08T00:54:25;4.77;;;3.53;;
21657;SDS011;10990;48.174;9.782;2023-04-08T00:56:52;4.63;;;3.13;;
21657;SDS011;10990;48.174;9.782;2023-04-08T00:59:20;3.97;;;3.37;;
21657;SDS011;10990;48.174;9.782;2023-04-08T01:01:48;4.80;;;3.27;;
21657;SDS011;10990;48.174;9.782;2023-04-08T01:04:21;4.93;;;3.30;;
21657;SDS011;10990;48.174;9.782;2023-04-08T01:06:56;4.87;;;3.40;;
21657;SDS011;10990;48.174;9.782;2023-04-08T01:09:29;3.80;;;2.80;;
21657;SDS011;10990;48.174;9.782;2023-04-08T01:12:01;4.20;;;3.50;;
21657;SDS011;10990;48.174;9.782;2023-04-08T01:14:33;4.63;;;3.07;;
21657;SDS011;10990;48.174;9.782;2023-04-08T01:17:04;6.17;;;3.33;;
21657;SDS011;10990;48.174;9.782;2023-04-08T01:19:33;4.13;;;3.20;;
21657;SDS011;10990;48.174;9.782;2023-04-08T01:22:04;4.03;;;3.20;;
21657;SDS011;10990;48.174;9.782;2023-04-08T01:24:42;3.97;;;3.13;;
21657;SDS011;10990;48.174;9.782;2023-04-08T01:27:12;5.00;;;3.33;;
21657;SDS011;10990;48.174;9.782;2023-04-08T01:29:40;5.07;;;3.43;;
21657;SDS011;10990;48.174;9.782;2023-04-08T01:32:08;5.03;;;3.30;;
21657;SDS011;10990;48.174;9.782;2023-04-08T01:34:37;5.30;;;3.37;;
21657;SDS011;10990;48.174;9.782;2023-04-08T01:37:05;4.53;;;3.43;;
21657;SDS011;10990;48.174;9.782;2023-04-08T01:39:33;4.63;;;3.33;;
21657;SDS011;10990;48.174;9.782;2023-04-08T01:42:01;4.90;;;3.57;;
21657;SDS011;10990;48.174;9.782;2023-04-08T01:44:29;4.40;;;3.50;;
21657;SDS011;10990;48.174;9.782;2023-04-08T01:46:58;5.23;;;3.57;;
21657;SDS011;10990;48.174;9.782;2023-04-08T01:49:25;3.87;;;3.03;;
21657;SDS011;10990;48.174;9.782;2023-04-08T01:51:52;4.87;;;3.60;;
21657;SDS011;10990;48.174;9.782;2023-04-08T01:54:22;4.27;;;3.50;;
21657;SDS011;10990;48.174;9.782;2023-04-08T01:56:48;4.00;;;3.27;;
21657;SDS011;10990;48.174;9.782;2023-04-08T01:59:20;5.37;;;3.47;;
21657;SDS011;10990;48.174;9.782;2023-04-08T02:01:51;4.37;;;3.67;;
21657;SDS011;10990;48.174;9.782;2023-04-08T02:04:19;4.97;;;3.60;;
21657;SDS011;10990;48.174;9.782;2023-04-08T02:06:45;5.20;;;3.80;;
21657;SDS011;10990;48.174;9.782;2023-04-08T02:09:13;5.07;;;3.80;;
21657;SDS011;10990;48.174;9.782;2023-04-08T02:11:39;4.47;;;3.60;;
21657;SDS011;10990;48.174;9.782;2023-04-08T02:14:06;5.43;;;4.20;;
21657;SDS011;10990;48.174;9.782;2023-04-08T02:16:35;6.80;;;4.90;;
21657;SDS011;10990;48.174;9.782;2023-04-08T02:19:10;8.20;;;5.87;;
21657;SDS011;10990;48.174;9.782;2023-04-08T02:21:42;7.00;;;5.40;;
21657;SDS011;10990;48.174;9.782;2023-04-08T02:24:12;8.27;;;6.00;;
21657;SDS011;10990;48.174;9.782;2023-04-08T02:26:42;7.87;;;5.77;;
21657;SDS011;10990;48.174;9.782;2023-04-08T02:29:11;7.80;;;6.00;;
21657;SDS011;10990;48.174;9.782;2023-04-08T02:31:41;7.20;;;5.23;;
21657;SDS011;10990;48.174;9.782;2023-04-08T02:34:10;7.97;;;5.80;;
21657;SDS011;10990;48.174;9.782;2023-04-08T02:36:39;8.13;;;6.20;;
21657;SDS011;10990;48.174;9.782;2023-04-08T02:39:10;8.90;;;7.10;;
21657;SDS011;10990;48.174;9.782;2023-04-08T02:41:37;10.37;;;6.57;;
21657;SDS011;10990;48.174;9.782;2023-04-08T02:44:04;9.03;;;6.87;;
21657;SDS011;10990;48.174;9.782;2023-04-08T02:46:31;10.90;;;7.60;;
21657;SDS011;10990;48.174;9.782;2023-04-08T02:48:58;10.43;;;7.20;;
21657;SDS011;10990;48.174;9.782;2023-04-08T02:51:26;9.73;;;6.97;;
21657;SDS011;10990;48.174;9.782;2023-04-08T02:53:53;8.50;;;6.63;;
21657;SDS011;10990;48.174;9.782;2023-04-08T02:56:19;10.70;;;7.33;;
21657;SDS011;10990;48.174;9.782;2023-04-08T02:58:47;9.93;;;7.03;;
21657;SDS011;10990;48.174;9.782;2023-04-08T03:01:13;10.27;;;7.30;;
21657;SDS011;10990;48.174;9.782;2023-04-08T03:03:40;10.30;;;7.30;;
21657;SDS011;10990;48.174;9.782;2023-04-08T03:06:07;12.57;;;7.53;;
21657;SDS011;10990;48.174;9.782;2023-04-08T03:08:35;12.07;;;8.20;;
21657;SDS011;10990;48.174;9.782;2023-04-08T03:11:02;10.73;;;7.70;;
21657;SDS011;10990;48.174;9.782;2023-04-08T03:13:28;13.97;;;8.63;;
21657;SDS011;10990;48.174;9.782;2023-04-08T03:15:55;11.37;;;7.90;;
21657;SDS011;10990;48.174;9.782;2023-04-08T03:18:22;12.13;;;8.33;;
21657;SDS011;10990;48.174;9.782;2023-04-08T03:20:49;13.03;;;8.67;;
21657;SDS011;10990;48.174;9.782;2023-04-08T03:23:16;12.10;;;8.63;;
21657;SDS011;10990;48.174;9.782;2023-04-08T03:25:44;13.67;;;8.87;;
21657;SDS011;10990;48.174;9.782;2023-04-08T03:28:11;11.30;;;8.37;;
21657;SDS011;10990;48.174;9.782;2023-04-08T03:30:38;13.53;;;8.87;;
21657;SDS011;10990;48.174;9.782;2023-04-08T03:33:05;12.17;;;8.70;;
21657;SDS011;10990;48.174;9.782;2023-04-08T03:35:32;11.77;;;8.03;;
21657;SDS011;10990;48.174;9.782;2023-04-08T03:37:59;12.87;;;8.57;;
21657;SDS011;10990;48.174;9.782;2023-04-08T03:40:26;14.77;;;9.37;;
21657;SDS011;10990;48.174;9.782;2023-04-08T03:42:54;12.93;;;9.27;;
21657;SDS011;10990;48.174;9.782;2023-04-08T03:45:21;12.37;;;8.40;;
21657;SDS011;10990;48.174;9.782;2023-04-08T03:47:47;12.63;;;8.77;;
21657;SDS011;10990;48.174;9.782;2023-04-08T03:50:14;12.40;;;8.30;;
21657;SDS011;10990;48.174;9.782;2023-04-08T03:52:41;14.23;;;8.77;;
21657;SDS011;10990;48.174;9.782;2023-04-08T03:55:08;10.83;;;8.00;;
21657;SDS011;10990;48.174;9.782;2023-04-08T03:57:35;11.60;;;8.30;;
21657;SDS011;10990;48.174;9.782;2023-04-08T04:00:03;11.20;;;8.17;;
21657;SDS011;10990;48.174;9.782;2023-04-08T04:02:37;11.53;;;8.00;;
21657;SDS011;10990;48.174;9.782;2023-04-08T04:05:04;13.10;;;8.97;;
21657;SDS011;10990;48.174;9.782;2023-04-08T04:07:31;11.60;;;8.00;;
21657;SDS011;10990;48.174;9.782;2023-04-08T04:09:58;13.27;;;8.77;;
21657;SDS011;10990;48.174;9.782;2023-04-08T04:12:25;12.73;;;8.80;;
21657;SDS011;10990;48.174;9.782;2023-04-08T04:14:52;13.03;;;9.00;;
21657;SDS011;10990;48.174;9.782;2023-04-08T04:17:20;12.10;;;8.33;;
21657;SDS011;10990;48.174;9.782;2023-04-08T04:19:47;12.40;;;8.47;;
21657;SDS011;10990;48.174;9.782;2023-04-08T04:22:13;13.40;;;8.90;;
21657;SDS011;10990;48.174;9.782;2023-04-08T04:24:40;12.23;;;8.47;;
21657;SDS011;10990;48.174;9.782;2023-04-08T04:27:07;12.50;;;8.93;;
21657;SDS011;10990;48.174;9.782;2023-04-08T04:29:34;13.53;;;9.33;;
21657;SDS011;10990;48.174;9.782;2023-04-08T04:32:00;12.90;;;8.73;;
21657;SDS011;10990;48.174;9.782;2023-04-08T04:34:28;13.73;;;9.63;;
21657;SDS011;10990;48.174;9.782;2023-04-08T04:36:55;13.23;;;9.43;;
21657;SDS011;10990;48.174;9.782;2023-04-08T04:39:22;14.23;;;9.50;;
21657;SDS011;10990;48.174;9.782;2023-04-08T04:41:49;13.30;;;9.30;;
21657;SDS011;10990;48.174;9.782;2023-04-08T04:44:16;14.57;;;9.43;;
21657;SDS011;10990;48.174;9.782;2023-04-08T04:46:43;14.30;;;10.00;;
21657;SDS011;10990;48.174;9.782;2023-04-08T04:49:10;14.40;;;9.43;;
21657;SDS011;10990;48.174;9.782;2023-04-08T04:51:38;12.43;;;8.83;;
21657;SDS011;10990;48.174;9.782;2023-04-08T04:54:05;13.83;;;9.90;;
21657;SDS011;10990;48.174;9.782;2023-04-08T04:56:32;14.33;;;9.73;;
21657;SDS011;10990;48.174;9.782;2023-04-08T04:58:59;14.73;;;9.97;;
21657;SDS011;10990;48.174;9.782;2023-04-08T05:01:25;12.90;;;9.00;;
21657;SDS011;10990;48.174;9.782;2023-04-08T05:03:53;14.83;;;10.17;;
21657;SDS011;10990;48.174;9.782;2023-04-08T05:06:19;16.83;;;10.10;;
21657;SDS011;10990;48.174;9.782;2023-04-08T05:08:49;12.93;;;8.87;;
21657;SDS011;10990;48.174;9.782;2023-04-08T05:11:16;13.03;;;9.53;;
21657;SDS011;10990;48.174;9.782;2023-04-08T05:13:43;13.63;;;9.73;;
21657;SDS011;10990;48.174;9.782;2023-04-08T05:16:10;14.17;;;9.27;;
21657;SDS011;10990;48.174;9.782;2023-04-08T05:18:37;14.07;;;9.63;;
21657;SDS011;10990;48.174;9.782;2023-04-08T05:21:03;15.07;;;10.60;;
21657;SDS011;10990;48.174;9.782;2023-04-08T05:23:30;14.10;;;9.13;;
21657;SDS011;10990;48.174;9.782;2023-04-08T05:25:58;16.60;;;10.30;;
21657;SDS011;10990;48.174;9.782;2023-04-08T05:28:25;15.10;;;10.10;;
21657;SDS011;10990;48.174;9.782;2023-04-08T05:30:52;13.53;;;9.23;;
21657;SDS011;10990;48.174;9.782;2023-04-08T05:33:19;14.33;;;9.67;;
21657;SDS011;10990;48.174;9.782;2023-04-08T05:35:46;13.03;;;8.97;;
21657;SDS011;10990;48.174;9.782;2023-04-08T05:38:12;12.87;;;9.03;;
21657;SDS011;10990;48.174;9.782;2023-04-08T05:40:39;14.30;;;9.83;;
21657;SDS011;10990;48.174;9.782;2023-04-08T05:43:07;12.83;;;8.77;;
21657;SDS011;10990;48.174;9.782;2023-04-08T05:45:34;15.53;;;9.70;;
21657;SDS011;10990;48.174;9.782;2023-04-08T05:48:01;14.63;;;10.10;;
21657;SDS011;10990;48.174;9.782;2023-04-08T05:50:28;13.20;;;9.37;;
21657;SDS011;10990;48.174;9.782;2023-04-08T05:52:54;13.60;;;9.57;;
21657;SDS011;10990;48.174;9.782;2023-04-08T05:55:21;13.60;;;9.47;;
21657;SDS011;10990;48.174;9.782;2023-04-08T05:57:48;12.93;;;9.40;;
21657;SDS011;10990;48.174;9.782;2023-04-08T06:00:16;11.77;;;8.60;;
21657;SDS011;10990;48.174;9.782;2023-04-08T06:02:44;14.10;;;10.10;;
21657;SDS011;10990;48.174;9.782;2023-04-08T06:05:10;12.93;;;9.20;;
21657;SDS011;10990;48.174;9.782;2023-04-08T06:07:37;13.13;;;9.50;;
21657;SDS011;10990;48.174;9.782;2023-04-08T06:10:04;13.70;;;9.43;;
21657;SDS011;10990;48.174;9.782;2023-04-08T06:12:34;12.90;;;9.27;;
21657;SDS011;10990;48.174;9.782;2023-04-08T06:15:01;14.37;;;9.60;;
21657;SDS011;10990;48.174;9.782;2023-04-08T06:17:30;15.13;;;10.20;;
21657;SDS011;10990;48.174;9.782;2023-04-08T06:19:56;14.07;;;9.73;;
21657;SDS011;10990;48.174;9.782;2023-04-08T06:22:23;14.17;;;10.47;;
21657;SDS011;10990;48.174;9.782;2023-04-08T06:24:50;16.73;;;10.73;;
21657;SDS011;10990;48.174;9.782;2023-04-08T06:27:17;15.73;;;10.97;;
21657;SDS011;10990;48.174;9.782;2023-04-08T06:29:43;15.90;;;10.87;;
21657;SDS011;10990;48.174;9.782;2023-04-08T06:32:11;15.43;;;11.03;;
21657;SDS011;10990;48.174;9.782;2023-04-08T06:34:39;15.27;;;11.07;;
21657;SDS011;10990;48.174;9.782;2023-04-08T06:37:06;14.10;;;10.33;;
21657;SDS011;10990;48.174;9.782;2023-04-08T06:39:33;15.40;;;10.90;;
21657;SDS011;10990;48.174;9.782;2023-04-08T06:42:00;16.03;;;10.67;;
21657;SDS011;10990;48.174;9.782;2023-04-08T06:44:42;15.43;;;11.33;;
21657;SDS011;10990;48.174;9.782;2023-04-08T06:47:09;14.47;;;10.30;;
21657;SDS011;10990;48.174;9.782;2023-04-08T06:49:36;15.73;;;11.00;;
21657;SDS011;10990;48.174;9.782;2023-04-08T06:52:04;11.97;;;9.20;;
21657;SDS011;10990;48.174;9.782;2023-04-08T06:54:32;14.00;;;9.70;;
21657;SDS011;10990;48.174;9.782;2023-04-08T06:56:58;13.57;;;9.53;;
21657;SDS011;10990;48.174;9.782;2023-04-08T06:59:25;13.37;;;9.70;;
21657;SDS011;10990;48.174;9.782;2023-04-08T07:01:52;13.37;;;9.10;;
21657;SDS011;10990;48.174;9.782;2023-04-08T07:04:19;12.47;;;9.00;;
21657;SDS011;10990;48.174;9.782;2023-04-08T07:06:46;13.87;;;9.30;;
21657;SDS011;10990;48.174;9.782;2023-04-08T07:09:14;12.47;;;8.87;;
21657;SDS011;10990;48.174;9.782;2023-04-08T07:11:40;12.37;;;8.50;;
21657;SDS011;10990;48.174;9.782;2023-04-08T07:14:07;11.70;;;8.53;;
21657;SDS011;10990;48.174;9.782;2023-04-08T07:16:34;14.70;;;8.83;;
21657;SDS011;10990;48.174;9.782;2023-04-08T07:19:01;13.17;;;8.30;;
21657;SDS011;10990;48.174;9.782;2023-04-08T07:21:28;11.73;;;8.00;;
21657;SDS011;10990;48.174;9.782;2023-04-08T07:23:55;11.23;;;8.20;;
21657;SDS011;10990;48.174;9.782;2023-04-08T07:26:23;12.67;;;8.63;;
21657;SDS011;10990;48.174;9.782;2023-04-08T07:28:50;11.27;;;8.03;;
21657;SDS011;10990;48.174;9.782;2023-04-08T07:31:17;11.80;;;8.43;;
21657;SDS011;10990;48.174;9.782;2023-04-08T07:33:44;11.40;;;7.57;;
21657;SDS011;10990;48.174;9.782;2023-04-08T07:36:12;11.00;;;7.90;;
21657;SDS011;10990;48.174;9.782;2023-04-08T07:38:39;12.47;;;8.70;;
21657;SDS011;10990;48.174;9.782;2023-04-08T07:41:06;12.13;;;8.90;;
21657;SDS011;10990;48.174;9.782;2023-04-08T07:43:34;12.33;;;8.53;;
21657;SDS011;10990;48.174;9.782;2023-04-08T07:46:01;11.33;;;8.00;;
21657;SDS011;10990;48.174;9.782;2023-04-08T07:48:29;11.83;;;8.10;;
21657;SDS011;10990;48.174;9.782;2023-04-08T07:50:56;10.00;;;7.23;;
21657;SDS011;10990;48.174;9.782;2023-04-08T07:53:23;9.93;;;7.50;;
21657;SDS011;10990;48.174;9.782;2023-04-08T07:55:51;9.03;;;6.83;;
21657;SDS011;10990;48.174;9.782;2023-04-08T07:58:18;9.27;;;6.73;;
21657;SDS011;10990;48.174;9.782;2023-04-08T08:00:46;8.77;;;6.50;;
21657;SDS011;10990;48.174;9.782;2023-04-08T08:03:13;8.33;;;6.23;;
21657;SDS011;10990;48.174;9.782;2023-04-08T08:05:40;8.23;;;6.40;;
21657;SDS011;10990;48.174;9.782;2023-04-08T08:08:06;8.37;;;6.07;;
21657;SDS011;10990;48.174;9.782;2023-04-08T08:10:36;7.67;;;6.07;;
21657;SDS011;10990;48.174;9.782;2023-04-08T08:13:02;8.27;;;6.33;;
21657;SDS011;10990;48.174;9.782;2023-04-08T08:15:29;9.27;;;7.00;;
21657;SDS011;10990;48.174;9.782;2023-04-08T08:17:58;9.27;;;6.70;;
21657;SDS011;10990;48.174;9.782;2023-04-08T08:20:25;9.17;;;6.83;;
21657;SDS011;10990;48.174;9.782;2023-04-08T08:22:52;8.10;;;6.13;;
21657;SDS011;10990;48.174;9.782;2023-04-08T08:25:19;8.27;;;6.30;;
21657;SDS011;10990;48.174;9.782;2023-04-08T08:27:46;8.53;;;6.70;;
21657;SDS011;10990;48.174;9.782;2023-04-08T08:30:13;7.43;;;5.97;;
21657;SDS011;10990;48.174;9.782;2023-04-08T08:32:40;10.00;;;6.17;;
21657;SDS011;10990;48.174;9.782;2023-04-08T08:35:08;8.77;;;6.50;;
21657;SDS011;10990;48.174;9.782;2023-04-08T08:37:35;9.03;;;6.60;;
21657;SDS011;10990;48.174;9.782;2023-04-08T08:40:02;8.10;;;6.47;;
21657;SDS011;10990;48.174;9.782;2023-04-08T08:42:29;9.33;;;6.77;;
21657;SDS011;10990;48.174;9.782;2023-04-08T08:44:56;8.60;;;6.43;;
21657;SDS011;10990;48.174;9.782;2023-04-08T08:47:23;8.60;;;6.70;;
21657;SDS011;10990;48.174;9.782;2023-04-08T08:49:50;10.00;;;7.30;;
21657;SDS011;10990;48.174;9.782;2023-04-08T08:52:18;9.83;;;6.40;;
21657;SDS011;10990;48.174;9.782;2023-04-08T08:54:45;10.07;;;7.30;;
21657;SDS011;10990;48.174;9.782;2023-04-08T08:57:16;8.90;;;6.90;;
21657;SDS011;10990;48.174;9.782;2023-04-08T08:59:44;9.93;;;6.50;;
21657;SDS011;10990;48.174;9.782;2023-04-08T09:02:25;11.97;;;7.30;;
21657;SDS011;10990;48.174;9.782;2023-04-08T09:04:59;23.50;;;9.87;;
21657;SDS011;10990;48.174;9.782;2023-04-08T09:07:29;12.77;;;8.33;;
21657;SDS011;10990;48.174;9.782;2023-04-08T09:09:57;11.33;;;6.77;;
21657;SDS011;10990;48.174;9.782;2023-04-08T09:12:25;9.87;;;6.93;;
21657;SDS011;10990;48.174;9.782;2023-04-08T09:15:01;8.53;;;6.53;;
21657;SDS011;10990;48.174;9.782;2023-04-08T09:17:33;8.83;;;6.63;;
21657;SDS011;10990;48.174;9.782;2023-04-08T09:20:04;13.23;;;8.20;;
21657;SDS011;10990;48.174;9.782;2023-04-08T09:22:35;12.07;;;8.57;;
21657;SDS011;10990;48.174;9.782;2023-04-08T09:25:24;15.47;;;10.60;;
21657;SDS011;10990;48.174;9.782;2023-04-08T09:27:52;16.17;;;10.90;;
21657;SDS011;10990;48.174;9.782;2023-04-08T09:30:20;17.23;;;11.43;;
21657;SDS011;10990;48.174;9.782;2023-04-08T09:32:48;15.93;;;11.30;;
21657;SDS011;10990;48.174;9.782;2023-04-08T09:35:16;18.37;;;12.70;;
21657;SDS011;10990;48.174;9.782;2023-04-08T09:37:45;17.97;;;12.07;;
21657;SDS011;10990;48.174;9.782;2023-04-08T09:40:12;18.40;;;11.93;;
21657;SDS011;10990;48.174;9.782;2023-04-08T09:42:41;19.17;;;12.53;;
21657;SDS011;10990;48.174;9.782;2023-04-08T09:45:11;17.00;;;11.63;;
21657;SDS011;10990;48.174;9.782;2023-04-08T09:47:41;14.90;;;10.50;;
21657;SDS011;10990;48.174;9.782;2023-04-08T09:50:18;17.07;;;11.70;;
21657;SDS011;10990;48.174;9.782;2023-04-08T09:52:52;17.40;;;11.93;;
21657;SDS011;10990;48.174;9.782;2023-04-08T09:55:22;16.93;;;11.67;;
21657;SDS011;10990;48.174;9.782;2023-04-08T09:57:54;14.73;;;9.97;;
21657;SDS011;10990;48.174;9.782;2023-04-08T10:00:26;16.50;;;10.75;;
21657;SDS011;10990;48.174;9.782;2023-04-08T10:02:59;15.57;;;11.13;;
21657;SDS011;10990;48.174;9.782;2023-04-08T10:05:30;14.02;;;10.70;;
21657;SDS011;10990;48.174;9.782;2023-04-08T10:07:59;14.48;;;10.35;;
21657;SDS011;10990;48.174;9.782;2023-04-08T10:10:26;13.50;;;10.20;;
21657;SDS011;10990;48.174;9.782;2023-04-08T10:12:53;15.85;;;11.57;;
21657;SDS011;10990;48.174;9.782;2023-04-08T10:15:21;12.85;;;9.38;;
21657;SDS011;10990;48.174;9.782;2023-04-08T10:17:51;13.10;;;9.45;;
21657;SDS011;10990;48.174;9.782;2023-04-08T10:23:09;15.50;;;10.30;;
21657;SDS011;10990;48.174;9.782;2023-04-08T10:25:37;14.35;;;9.52;;
21657;SDS011;10990;48.174;9.782;2023-04-08T10:28:24;12.13;;;9.63;;
21657;SDS011;10990;48.174;9.782;2023-04-08T10:30:51;15.27;;;10.52;;
21657;SDS011;10990;48.174;9.782;2023-04-08T10:33:20;15.02;;;10.75;;
21657;SDS011;10990;48.174;9.782;2023-04-08T10:35:50;15.38;;;11.02;;
21657;SDS011;10990;48.174;9.782;2023-04-08T10:38:20;19.02;;;12.55;;
21657;SDS011;10990;48.174;9.782;2023-04-08T10:40:47;19.30;;;12.23;;
21657;SDS011;10990;48.174;9.782;2023-04-08T10:43:15;16.65;;;11.73;;
21657;SDS011;10990;48.174;9.782;2023-04-08T10:45:43;15.27;;;11.20;;
21657;SDS011;10990;48.174;9.782;2023-04-08T10:48:10;13.23;;;10.02;;
21657;SDS011;10990;48.174;9.782;2023-04-08T10:50:38;14.63;;;9.65;;
21657;SDS011;10990;48.174;9.782;2023-04-08T10:53:06;14.83;;;10.13;;
21657;SDS011;10990;48.174;9.782;2023-04-08T10:55:34;14.93;;;9.93;;
21657;SDS011;10990;48.174;9.782;2023-04-08T10:58:05;15.05;;;10.13;;
21657;SDS011;10990;48.174;9.782;2023-04-08T11:00:33;13.50;;;9.77;;
21657;SDS011;10990;48.174;9.782;2023-04-08T11:03:01;11.73;;;8.50;;
21657;SDS011;10990;48.174;9.782;2023-04-08T11:05:28;14.00;;;10.45;;
21657;SDS011;10990;48.174;9.782;2023-04-08T11:07:55;14.57;;;10.32;;
21657;SDS011;10990;48.174;9.782;2023-04-08T11:10:23;17.63;;;10.88;;
21657;SDS011;10990;48.174;9.782;2023-04-08T11:12:52;15.48;;;10.55;;
21657;SDS011;10990;48.174;9.782;2023-04-08T11:15:19;13.45;;;9.45;;
21657;SDS011;10990;48.174;9.782;2023-04-08T11:17:46;14.90;;;10.00;;
21657;SDS011;10990;48.174;9.782;2023-04-08T11:20:14;14.93;;;9.82;;
21657;SDS011;10990;48.174;9.782;2023-04-08T11:22:41;13.23;;;9.30;;
21657;SDS011;10990;48.174;9.782;2023-04-08T11:25:09;12.25;;;9.18;;
21657;SDS011;10990;48.174;9.782;2023-04-08T11:27:36;14.03;;;9.90;;
21657;SDS011;10990;48.174;9.782;2023-04-08T11:30:05;14.50;;;10.68;;
21657;SDS011;10990;48.174;9.782;2023-04-08T11:32:33;14.52;;;10.63;;
21657;SDS011;10990;48.174;9.782;2023-04-08T11:35:03;14.73;;;9.80;;
21657;SDS011;10990;48.174;9.782;2023-04-08T11:37:37;15.33;;;10.77;;
21657;SDS011;10990;48.174;9.782;2023-04-08T11:40:08;14.83;;;10.27;;
21657;SDS011;10990;48.174;9.782;2023-04-08T11:42:36;17.40;;;11.43;;
21657;SDS011;10990;48.174;9.782;2023-04-08T11:45:13;15.27;;;10.87;;
21657;SDS011;10990;48.174;9.782;2023-04-08T11:47:41;14.20;;;10.07;;
21657;SDS011;10990;48.174;9.782;2023-04-08T11:50:09;14.85;;;10.52;;
21657;SDS011;10990;48.174;9.782;2023-04-08T11:52:42;13.83;;;10.27;;
21657;SDS011;10990;48.174;9.782;2023-04-08T11:55:11;14.73;;;10.50;;
21657;SDS011;10990;48.174;9.782;2023-04-08T11:57:47;17.25;;;11.57;;
21657;SDS011;10990;48.174;9.782;2023-04-08T12:00:15;22.85;;;13.93;;
21657;SDS011;10990;48.174;9.782;2023-04-08T12:02:42;17.50;;;10.90;;
21657;SDS011;10990;48.174;9.782;2023-04-08T12:05:09;14.93;;;10.27;;
21657;SDS011;10990;48.174;9.782;2023-04-08T12:07:35;16.63;;;11.70;;
21657;SDS011;10990;48.174;9.782;2023-04-08T12:10:02;15.03;;;11.13;;
21657;SDS011;10990;48.174;9.782;2023-04-08T12:12:30;16.75;;;11.50;;
21657;SDS011;10990;48.174;9.782;2023-04-08T12:14:56;16.23;;;11.95;;
21657;SDS011;10990;48.174;9.782;2023-04-08T12:17:24;14.77;;;10.40;;
21657;SDS011;10990;48.174;9.782;2023-04-08T12:19:51;15.85;;;11.15;;
21657;SDS011;10990;48.174;9.782;2023-04-08T12:22:18;26.83;;;15.57;;
21657;SDS011;10990;48.174;9.782;2023-04-08T12:24:45;16.80;;;11.13;;
21657;SDS011;10990;48.174;9.782;2023-04-08T12:27:12;14.32;;;10.60;;
21657;SDS011;10990;48.174;9.782;2023-04-08T12:29:38;15.13;;;8.98;;
21657;SDS011;10990;48.174;9.782;2023-04-08T12:32:05;14.77;;;10.35;;
21657;SDS011;10990;48.174;9.782;2023-04-08T12:34:33;12.80;;;9.52;;
21657;SDS011;10990;48.174;9.782;2023-04-08T12:37:00;13.13;;;9.75;;
21657;SDS011;10990;48.174;9.782;2023-04-08T12:39:27;12.60;;;9.65;;
21657;SDS011;10990;48.174;9.782;2023-04-08T12:41:54;11.18;;;8.35;;
21657;SDS011;10990;48.174;9.782;2023-04-08T12:44:21;13.38;;;9.82;;
21657;SDS011;10990;48.174;9.782;2023-04-08T12:46:47;14.68;;;10.40;;
21657;SDS011;10990;48.174;9.782;2023-04-08T12:49:14;16.05;;;10.50;;
21657;SDS011;10990;48.174;9.782;2023-04-08T12:51:43;13.63;;;9.70;;
21657;SDS011;10990;48.174;9.782;2023-04-08T12:54:09;14.30;;;9.75;;
21657;SDS011;10990;48.174;9.782;2023-04-08T12:56:36;13.77;;;9.35;;
21657;SDS011;10990;48.174;9.782;2023-04-08T12:59:03;12.38;;;9.68;;
21657;SDS011;10990;48.174;9.782;2023-04-08T13:01:30;13.88;;;10.07;;
21657;SDS011;10990;48.174;9.782;2023-04-08T13:03:57;12.18;;;9.00;;
21657;SDS011;10990;48.174;9.782;2023-04-08T13:06:24;13.52;;;10.02;;
21657;SDS011;10990;48.174;9.782;2023-04-08T13:08:53;14.15;;;10.50;;
21657;SDS011;10990;48.174;9.782;2023-04-08T13:11:20;13.85;;;9.93;;
21657;SDS011;10990;48.174;9.782;2023-04-08T13:13:47;14.27;;;9.88;;
21657;SDS011;10990;48.174;9.782;2023-04-08T13:16:14;14.82;;;10.77;;
21657;SDS011;10990;48.174;9.782;2023-04-08T13:18:41;16.40;;;10.75;;
21657;SDS011;10990;48.174;9.782;2023-04-08T13:21:08;16.23;;;10.43;;
21657;SDS011;10990;48.174;9.782;2023-04-08T13:23:35;14.73;;;10.07;;
21657;SDS011;10990;48.174;9.782;2023-04-08T13:26:03;14.07;;;10.00;;
21657;SDS011;10990;48.174;9.782;2023-04-08T13:28:30;17.00;;;11.07;;
21657;SDS011;10990;48.174;9.782;2023-04-08T13:30:57;14.52;;;10.18;;
21657;SDS011;10990;48.174;9.782;2023-04-08T13:33:24;14.00;;;10.35;;
21657;SDS011;10990;48.174;9.782;2023-04-08T13:35:51;16.27;;;11.02;;
21657;SDS011;10990;48.174;9.782;2023-04-08T13:38:18;15.67;;;11.20;;
21657;SDS011;10990;48.174;9.782;2023-04-08T13:40:46;14.20;;;10.40;;
21657;SDS011;10990;48.174;9.782;2023-04-08T13:43:16;16.03;;;11.30;;
21657;SDS011;10990;48.174;9.782;2023-04-08T13:45:43;15.32;;;10.68;;
21657;SDS011;10990;48.174;9.782;2023-04-08T13:48:10;16.00;;;11.17;;
21657;SDS011;10990;48.174;9.782;2023-04-08T13:50:37;17.67;;;11.63;;
21657;SDS011;10990;48.174;9.782;2023-04-08T13:53:04;17.63;;;11.45;;
21657;SDS011;10990;48.174;9.782;2023-04-08T13:55:31;20.03;;;11.97;;
21657;SDS011;10990;48.174;9.782;2023-04-08T13:57:58;16.50;;;12.43;;
21657;SDS011;10990;48.174;9.782;2023-04-08T14:00:26;18.67;;;12.98;;
21657;SDS011;10990;48.174;9.782;2023-04-08T14:02:52;19.27;;;12.17;;
21657;SDS011;10990;48.174;9.782;2023-04-08T14:05:19;16.17;;;11.20;;
21657;SDS011;10990;48.174;9.782;2023-04-08T14:07:46;18.13;;;12.13;;
21657;SDS011;10990;48.174;9.782;2023-04-08T14:10:13;18.87;;;12.13;;
21657;SDS011;10990;48.174;9.782;2023-04-08T14:12:41;18.10;;;12.93;;
21657;SDS011;10990;48.174;9.782;2023-04-08T14:15:08;17.63;;;12.30;;
21657;SDS011;10990;48.174;9.782;2023-04-08T14:17:36;16.77;;;12.23;;
21657;SDS011;10990;48.174;9.782;2023-04-08T14:20:03;17.20;;;12.40;;
21657;SDS011;10990;48.174;9.782;2023-04-08T14:22:31;21.33;;;13.73;;
21657;SDS011;10990;48.174;9.782;2023-04-08T14:24:58;17.90;;;12.87;;
21657;SDS011;10990;48.174;9.782;2023-04-08T14:27:24;19.37;;;13.27;;
21657;SDS011;10990;48.174;9.782;2023-04-08T14:29:52;19.73;;;13.27;;
21657;SDS011;10990;48.174;9.782;2023-04-08T14:32:18;18.60;;;13.30;;
21657;SDS011;10990;48.174;9.782;2023-04-08T14:34:47;20.13;;;13.77;;
21657;SDS011;10990;48.174;9.782;2023-04-08T14:37:14;16.93;;;12.80;;
21657;SDS011;10990;48.174;9.782;2023-04-08T14:39:42;15.95;;;12.15;;